Prinsendam — PBGH — position and weather

sailwx.info

Track history (hours):
 
Tides and Currents Weather Stations Pressure Air Temp Water Temp Dewpoint Dewpoint Depression Visibility Wind Speed Wind Dir Waves Ship Positions

Prinsendam

Operator: Holland America Line

Last reported at 2017-Jul-22 07:00 UTC. Time now 2017-Jul-22 12:42 UTC.
Position N 78°06' E 013°48'.

Type: Ship. MMSI: 244126000.

Wind from 220 at 17 knots

Barometer 1018.3 mb
Air temperature 8.0 ° C
Visibility: greater than 5.4 NM
Dewpoint 6.0 ° C
Water temperature 6.0 ° C

Date/timePositionNaut miles runAvg speedWind from/ knotsBaromVisibWave heightAir tempDewpointWater temp
2017-Jul-22 07:00N 78°06' E 013°48'2412.2 220 / 171018.3 5.4 8.0 6.0 6.0
2017-Jul-22 05:00N 77°54' E 012°06'1414.2 170 / 131018.3 5.4 8.0 7.0 6.9
2017-Jul-22 04:00N 77°42' E 011°30'4210.6 190 / 171018.0 5.4 8.0 7.0 6.9
2017-Jul-22 00:00N 77°06' E 009°48'9616.0 230 / 141017.3 5.4 9.0 7.1 8.0
2017-Jul-21 18:00N 75°36' E 007°24'3015.0 250 / 191017.410.8 7.0 4.9 7.0
2017-Jul-21 16:00N 75°06' E 007°18'19815.2 250 / 201017.4 5.4 10.0 9.1 7.2
2017-Jul-21 03:00N 71°48' E 006°48'39615.9 280 / 181019.010.8 1.010.0 9.110.0
2017-Jul-20 02:00N 65°12' E 005°54'14314.7 090 / 251016.5 5.4 12.010.212.0
2017-Jul-19 16:16N 62°50' E 005°37'414.7
2017-Jul-19 16:00N 62°46' E 005°37'714.7
2017-Jul-19 15:30N 62°38' E 005°36'714.5
2017-Jul-19 15:00N 62°31' E 005°40'815.6
2017-Jul-19 14:30N 62°27' E 005°55'612.0
2017-Jul-19 14:00N 62°27' E 006°08'1 2.7
2017-Jul-19 13:28N 62°28' E 006°09'0 0.0
2017-Jul-19 12:58N 62°28' E 006°09'0 0.0
2017-Jul-19 12:28N 62°28' E 006°09'0 0.0
2017-Jul-19 11:58N 62°28' E 006°09'0 0.0
2017-Jul-19 11:28N 62°28' E 006°09'0 0.0
2017-Jul-19 10:58N 62°28' E 006°09'0 0.0
2017-Jul-19 10:28N 62°28' E 006°09'0 0.0
2017-Jul-19 09:58N 62°28' E 006°09'0 0.0
2017-Jul-19 09:28N 62°28' E 006°09'0 0.0
2017-Jul-19 08:58N 62°28' E 006°09'0 0.0
2017-Jul-19 08:28N 62°28' E 006°09'0 0.0
2017-Jul-19 07:58N 62°28' E 006°09'0 0.0
2017-Jul-19 07:28N 62°28' E 006°09'0 0.0
2017-Jul-19 06:55N 62°28' E 006°09'0 0.0
2017-Jul-19 06:28N 62°28' E 006°09'0 0.0
2017-Jul-19 05:58N 62°28' E 006°09'0 0.0
2017-Jul-19 05:28N 62°28' E 006°09'0 0.0
2017-Jul-19 04:58N 62°28' E 006°09'0 0.1
2017-Jul-19 04:30N 62°28' E 006°09'1 2.4
2017-Jul-19 04:00N 62°27' E 006°08'510.1
2017-Jul-19 03:30N 62°27' E 005°57'612.2
2017-Jul-19 03:00N 62°29' E 005°45'612.1
2017-Jul-19 02:30N 62°30' E 005°32'714.2
2017-Jul-19 02:00N 62°27' E 005°18'713.7
2017-Jul-19 01:30N 62°24' E 005°05'714.4
2017-Jul-19 01:00N 62°20' E 004°52'714.5
2017-Jul-19 00:30N 62°16' E 004°39'7613.5
2017-Jul-18 18:52N 61°00' E 004°14'514.5
2017-Jul-18 18:30N 60°56' E 004°19'714.4
2017-Jul-18 18:00N 60°49' E 004°26'713.5
2017-Jul-18 17:30N 60°45' E 004°37'611.8
2017-Jul-18 17:00N 60°43' E 004°48'612.9
2017-Jul-18 16:30N 60°37' E 004°53'815.7
2017-Jul-18 16:00N 60°30' E 004°59'713.1
2017-Jul-18 15:30N 60°24' E 005°07'5 9.9
2017-Jul-18 15:00N 60°24' E 005°17'1 1.0
2017-Jul-18 14:00N 60°24' E 005°19'0 0.0
2017-Jul-18 13:30N 60°24' E 005°19'0 0.0
2017-Jul-18 13:00N 60°24' E 005°19'0 0.0
2017-Jul-18 12:30N 60°24' E 005°19'0 0.0
2017-Jul-18 12:00N 60°24' E 005°19'0 0.0
2017-Jul-18 11:30N 60°24' E 005°19'0 0.0
2017-Jul-18 11:00N 60°24' E 005°19'0 0.0
2017-Jul-18 10:30N 60°24' E 005°19'0 0.0
2017-Jul-18 10:00N 60°24' E 005°19'0 0.0
2017-Jul-18 09:30N 60°24' E 005°19'0 0.0
2017-Jul-18 09:00N 60°24' E 005°19'0 0.0
2017-Jul-18 08:30N 60°24' E 005°19'0 0.0
2017-Jul-18 08:00N 60°24' E 005°19'0 0.0
2017-Jul-18 07:30N 60°24' E 005°19'0 0.0
2017-Jul-18 07:00N 60°24' E 005°19'0 0.0
2017-Jul-18 06:30N 60°24' E 005°19'0 0.0
2017-Jul-18 06:00N 60°24' E 005°19'0 0.0
2017-Jul-18 05:30N 60°24' E 005°19'0 0.0
2017-Jul-18 05:00N 60°24' E 005°19'0 0.1
2017-Jul-18 04:30N 60°24' E 005°18'1 3.0
2017-Jul-18 04:00N 60°24' E 005°15'4 7.7
2017-Jul-18 03:30N 60°21' E 005°10'4 8.3
2017-Jul-18 03:00N 60°17' E 005°11'4 8.4
2017-Jul-18 02:30N 60°13' E 005°11'5 9.2
2017-Jul-18 02:00N 60°09' E 005°16'5 9.4
2017-Jul-18 01:30N 60°05' E 005°19'5 9.6
2017-Jul-18 01:00N 59°60' E 005°21'5 9.3
2017-Jul-18 00:30N 59°57' E 005°27'5 9.2
2017-Jul-18 00:00N 59°53' E 005°32'4 8.9
2017-Jul-17 23:30N 59°49' E 005°35'4 8.7
2017-Jul-17 23:00N 59°52' E 005°41'5 9.0
2017-Jul-17 22:30N 59°56' E 005°46'4 8.9
2017-Jul-17 22:00N 59°59' E 005°51'5 9.1
2017-Jul-17 21:30N 60°02' E 005°57'5 9.1
2017-Jul-17 20:59N 60°06' E 006°04'4 7.8
2017-Jul-17 20:30N 60°10' E 006°04'4 7.7
2017-Jul-17 19:59N 60°13' E 006°06'4 8.9
2017-Jul-17 19:30N 60°17' E 006°12'5 9.6
2017-Jul-17 19:00N 60°21' E 006°17'510.3
2017-Jul-17 18:30N 60°24' E 006°25'510.4
2017-Jul-17 18:00N 60°27' E 006°34'5 9.6
2017-Jul-17 17:30N 60°26' E 006°44'5 9.9
2017-Jul-17 17:00N 60°29' E 006°52'510.3
2017-Jul-17 16:30N 60°29' E 007°02'1 0.1
2017-Jul-17 05:41N 60°28' E 007°03'0 0.1
2017-Jul-17 05:17N 60°28' E 007°03'1 1.8
2017-Jul-17 04:59N 60°29' E 007°03'5 9.6
2017-Jul-17 04:30N 60°29' E 006°53'612.6
2017-Jul-17 04:00N 60°25' E 006°42'92200.8
2017-Jul-17 04:00N 60°24' E 006°24'3 7.0 270 / 201014.0 5.4 13.011.314.0
2017-Jul-17 03:30N 60°26' E 006°30'714.3
2017-Jul-17 03:00N 60°21' E 006°18'715.1
2017-Jul-17 02:30N 60°15' E 006°11'713.4
2017-Jul-17 02:00N 60°09' E 006°05'815.6
2017-Jul-17 01:30N 60°02' E 005°57'817.1
2017-Jul-17 01:00N 59°56' E 005°46'917.3
2017-Jul-17 00:30N 59°48' E 005°36'817.2
2017-Jul-17 00:00N 59°42' E 005°26'917.0
2017-Jul-16 23:30N 59°35' E 005°15'714.5
2017-Jul-16 23:00N 59°28' E 005°10'714.0
2017-Jul-16 22:30N 59°22' E 005°06'816.4
2017-Jul-16 22:00N 59°14' E 005°06'714.4
2017-Jul-16 21:30N 59°07' E 005°12'510.3
2017-Jul-16 21:00N 59°05' E 005°21'611.3
2017-Jul-16 20:30N 58°60' E 005°20'713.8
2017-Jul-16 20:00N 58°53' E 005°20'816.4
2017-Jul-16 19:30N 58°44' E 005°20'816.0
2017-Jul-16 19:00N 58°36' E 005°20'815.7
2017-Jul-16 18:30N 58°29' E 005°20'714.4
2017-Jul-16 18:00N 58°22' E 005°24'714.3
2017-Jul-16 17:30N 58°15' E 005°29'24914.2
2017-Jul-16 00:00N 54°06' E 005°06'4018.8 220 / 201017.0 2.2 17.017.017.0
2017-Jul-15 21:51N 53°28' E 004°44'716.9
2017-Jul-15 21:24N 53°21' E 004°39'717.2
2017-Jul-15 21:00N 53°15' E 004°34'917.4
2017-Jul-15 20:30N 53°07' E 004°28'917.6
2017-Jul-15 20:01N 52°59' E 004°21'917.4
2017-Jul-15 19:31N 52°51' E 004°16'917.3
2017-Jul-15 19:00N 52°44' E 004°08'816.7
2017-Jul-15 18:30N 52°36' E 004°06'714.7
2017-Jul-15 18:00N 52°31' E 004°15'611.9
2017-Jul-15 17:30N 52°30' E 004°25'510.2
2017-Jul-15 17:00N 52°28' E 004°32'2 4.9
2017-Jul-15 16:31N 52°28' E 004°36'2 3.5
2017-Jul-15 16:01N 52°28' E 004°39'4 8.2
2017-Jul-15 15:31N 52°26' E 004°45'4 7.4
2017-Jul-15 15:01N 52°25' E 004°51'3 3.2
2017-Jul-15 14:00N 52°23' E 004°55'0 0.0
2017-Jul-15 13:30N 52°23' E 004°55'0 0.0
2017-Jul-15 13:00N 52°23' E 004°55'0 0.0
2017-Jul-15 12:30N 52°23' E 004°55'0 0.0
2017-Jul-15 12:00N 52°23' E 004°55'0 0.0
2017-Jul-15 11:30N 52°23' E 004°55'0 0.0
2017-Jul-15 11:00N 52°23' E 004°55'0 0.0
2017-Jul-15 10:30N 52°23' E 004°55'0 0.0
2017-Jul-15 10:00N 52°23' E 004°55'0 0.0
2017-Jul-15 09:30N 52°23' E 004°55'0 0.0
2017-Jul-15 09:00N 52°23' E 004°55'0 0.0
2017-Jul-15 08:30N 52°23' E 004°55'0 0.0
2017-Jul-15 08:00N 52°23' E 004°55'0 0.0
2017-Jul-15 07:30N 52°23' E 004°55'0 0.0
2017-Jul-15 07:00N 52°23' E 004°55'0 0.0
2017-Jul-15 06:30N 52°23' E 004°55'0 0.0
2017-Jul-15 06:00N 52°23' E 004°55'0 0.0
2017-Jul-15 05:30N 52°23' E 004°55'0 0.0
2017-Jul-15 05:00N 52°23' E 004°55'0 0.0
2017-Jul-15 04:30N 52°23' E 004°55'1 1.4
2017-Jul-15 04:01N 52°23' E 004°54'3 6.3
2017-Jul-15 03:31N 52°25' E 004°50'4 7.4
2017-Jul-15 03:00N 52°26' E 004°44'4 7.9
2017-Jul-15 02:30N 52°28' E 004°38'1 2.2
2017-Jul-15 02:00N 52°28' E 004°37'2 3.3
2017-Jul-15 01:30N 52°28' E 004°34'611.0
2017-Jul-15 01:00N 52°29' E 004°25'612.6
2017-Jul-15 00:31N 52°29' E 004°15'918.5
2017-Jul-15 00:00N 52°36' E 004°04'918.7
2017-Jul-14 23:30N 52°44' E 003°56'1020.8
2017-Jul-14 23:00N 52°54' E 003°59'918.8
2017-Jul-14 22:30N 53°01' E 004°10'1019.3
2017-Jul-14 22:00N 53°07' E 004°22'14118.4
2017-Jul-14 14:21N 54°01' E 008°01'618.0
2017-Jul-14 14:00N 54°00' E 008°12'815.8
2017-Jul-14 13:30N 53°59' E 008°25'917.1
2017-Jul-14 13:00N 53°57' E 008°39'713.0
2017-Jul-14 12:30N 53°51' E 008°45'713.3
2017-Jul-14 12:00N 53°51' E 008°56'714.7
2017-Jul-14 11:30N 53°53' E 009°08'0 0.8
2017-Jul-14 11:00N 53°54' E 009°09'2 3.7
2017-Jul-14 10:30N 53°55' E 009°11'3 6.9
2017-Jul-14 10:00N 53°58' E 009°15'3 6.8
2017-Jul-14 09:30N 54°00' E 009°18'3 6.8
2017-Jul-14 09:00N 54°04' E 009°19'5 6.4
2017-Jul-14 08:10N 54°09' E 009°22'50 5.1
2017-Jul-13 22:19N 54°35' E 010°36'619.1
2017-Jul-13 22:00N 54°35' E 010°46'1019.2
2017-Jul-13 21:31N 54°36' E 011°02'918.6
2017-Jul-13 21:00N 54°34' E 011°18'918.6
2017-Jul-13 20:31N 54°31' E 011°33'1318.7
2017-Jul-13 19:47N 54°23' E 011°52'818.0
2017-Jul-13 19:21N 54°18' E 012°02'513.4
2017-Jul-13 18:58N 54°13' E 012°05'3 5.1
2017-Jul-13 18:28N 54°11' E 012°06'0 0.0
2017-Jul-13 14:40N 54°11' E 012°06'0 0.0
2017-Jul-13 14:28N 54°11' E 012°06'0 0.0
2017-Jul-13 03:59N 54°10' E 012°06'3 5.8
2017-Jul-13 03:30N 54°13' E 012°03'2 3.5
2017-Jul-13 03:00N 54°15' E 012°02'612.4
2017-Jul-13 02:31N 54°20' E 011°57'612.2
2017-Jul-13 02:00N 54°26' E 011°58'613.0
2017-Jul-13 01:31N 54°27' E 012°09'714.0
2017-Jul-13 01:01N 54°34' E 012°14'1414.3
2017-Jul-13 00:02N 54°44' E 012°30'514.5
2017-Jul-12 23:41N 54°46' E 012°38'314.3
2017-Jul-12 23:30N 54°48' E 012°42'1314.3
2017-Jul-12 22:37N 54°52' E 013°02'214.7
2017-Jul-12 22:30N 54°53' E 013°05'714.4
2017-Jul-12 22:00N 54°54' E 013°17'1814.7
2017-Jul-12 20:47N 54°60' E 013°47'415.1
2017-Jul-12 20:30N 55°01' E 013°54'815.0
2017-Jul-12 20:00N 55°04' E 014°06'815.3
2017-Jul-12 19:31N 55°10' E 014°14'815.3
2017-Jul-12 19:01N 55°16' E 014°22'815.4
2017-Jul-12 18:31N 55°23' E 014°30'715.0
2017-Jul-12 18:01N 55°28' E 014°40'815.0
2017-Jul-12 17:30N 55°32' E 014°51'815.1
2017-Jul-12 17:00N 55°36' E 015°03'815.4
2017-Jul-12 16:31N 55°40' E 015°14'815.2
2017-Jul-12 16:00N 55°43' E 015°26'815.3
2017-Jul-12 15:30N 55°46' E 015°39'815.2
2017-Jul-12 15:01N 55°50' E 015°50'1515.3
2017-Jul-12 14:01N 55°58' E 016°14'815.2
2017-Jul-12 13:31N 56°02' E 016°25'815.1
2017-Jul-12 13:01N 56°07' E 016°36'714.2
2017-Jul-12 12:30N 56°12' E 016°45'815.0
2017-Jul-12 12:00N 56°19' E 016°51'815.1
2017-Jul-12 11:30N 56°25' E 016°56'  
Track history (hours):
 
Tides and Currents Weather Stations Pressure Air Temp Water Temp Dewpoint Dewpoint Depression Visibility Wind Speed Wind Dir Waves Ship Positions

Prinsendam

Operator: Holland America Line

Last reported at 2017-Jul-22 07:00 UTC. Time now 2017-Jul-22 12:42 UTC.
Position N 78°06' E 013°48'.

Type: Ship. MMSI: 244126000.

Wind from 220 at 17 knots

Barometer 1018.3 mb
Air temperature 8.0 ° C
Visibility: greater than 5.4 NM
Dewpoint 6.0 ° C
Water temperature 6.0 ° C

Date/timePositionNaut miles runAvg speedWind from/ knotsBaromVisibWave heightAir tempDewpointWater temp
2017-Jul-22 07:00N 78°06' E 013°48'2412.2 220 / 171018.3 5.4 8.0 6.0 6.0
2017-Jul-22 05:00N 77°54' E 012°06'1414.2 170 / 131018.3 5.4 8.0 7.0 6.9
2017-Jul-22 04:00N 77°42' E 011°30'4210.6 190 / 171018.0 5.4 8.0 7.0 6.9
2017-Jul-22 00:00N 77°06' E 009°48'9616.0 230 / 141017.3 5.4 9.0 7.1 8.0
2017-Jul-21 18:00N 75°36' E 007°24'3015.0 250 / 191017.410.8 7.0 4.9 7.0
2017-Jul-21 16:00N 75°06' E 007°18'19815.2 250 / 201017.4 5.4 10.0 9.1 7.2
2017-Jul-21 03:00N 71°48' E 006°48'39615.9 280 / 181019.010.8 1.010.0 9.110.0
2017-Jul-20 02:00N 65°12' E 005°54'14314.7 090 / 251016.5 5.4 12.010.212.0
2017-Jul-19 16:16N 62°50' E 005°37'414.7
2017-Jul-19 16:00N 62°46' E 005°37'714.7
2017-Jul-19 15:30N 62°38' E 005°36'714.5
2017-Jul-19 15:00N 62°31' E 005°40'815.6
2017-Jul-19 14:30N 62°27' E 005°55'612.0
2017-Jul-19 14:00N 62°27' E 006°08'1 2.7
2017-Jul-19 13:28N 62°28' E 006°09'0 0.0
2017-Jul-19 12:58N 62°28' E 006°09'0 0.0
2017-Jul-19 12:28N 62°28' E 006°09'0 0.0
2017-Jul-19 11:58N 62°28' E 006°09'0 0.0
2017-Jul-19 11:28N 62°28' E 006°09'0 0.0
2017-Jul-19 10:58N 62°28' E 006°09'0 0.0
2017-Jul-19 10:28N 62°28' E 006°09'0 0.0
2017-Jul-19 09:58N 62°28' E 006°09'0 0.0
2017-Jul-19 09:28N 62°28' E 006°09'0 0.0
2017-Jul-19 08:58N 62°28' E 006°09'0 0.0
2017-Jul-19 08:28N 62°28' E 006°09'0 0.0
2017-Jul-19 07:58N 62°28' E 006°09'0 0.0
2017-Jul-19 07:28N 62°28' E 006°09'0 0.0
2017-Jul-19 06:55N 62°28' E 006°09'0 0.0
2017-Jul-19 06:28N 62°28' E 006°09'0 0.0
2017-Jul-19 05:58N 62°28' E 006°09'0 0.0
2017-Jul-19 05:28N 62°28' E 006°09'0 0.0
2017-Jul-19 04:58N 62°28' E 006°09'0 0.1
2017-Jul-19 04:30N 62°28' E 006°09'1 2.4
2017-Jul-19 04:00N 62°27' E 006°08'510.1
2017-Jul-19 03:30N 62°27' E 005°57'612.2
2017-Jul-19 03:00N 62°29' E 005°45'612.1
2017-Jul-19 02:30N 62°30' E 005°32'714.2
2017-Jul-19 02:00N 62°27' E 005°18'713.7
2017-Jul-19 01:30N 62°24' E 005°05'714.4
2017-Jul-19 01:00N 62°20' E 004°52'714.5
2017-Jul-19 00:30N 62°16' E 004°39'7613.5
2017-Jul-18 18:52N 61°00' E 004°14'514.5
2017-Jul-18 18:30N 60°56' E 004°19'714.4
2017-Jul-18 18:00N 60°49' E 004°26'713.5
2017-Jul-18 17:30N 60°45' E 004°37'611.8
2017-Jul-18 17:00N 60°43' E 004°48'612.9
2017-Jul-18 16:30N 60°37' E 004°53'815.7
2017-Jul-18 16:00N 60°30' E 004°59'713.1
2017-Jul-18 15:30N 60°24' E 005°07'5 9.9
2017-Jul-18 15:00N 60°24' E 005°17'1 1.0
2017-Jul-18 14:00N 60°24' E 005°19'0 0.0
2017-Jul-18 13:30N 60°24' E 005°19'0 0.0
2017-Jul-18 13:00N 60°24' E 005°19'0 0.0
2017-Jul-18 12:30N 60°24' E 005°19'0 0.0
2017-Jul-18 12:00N 60°24' E 005°19'0 0.0
2017-Jul-18 11:30N 60°24' E 005°19'0 0.0
2017-Jul-18 11:00N 60°24' E 005°19'0 0.0
2017-Jul-18 10:30N 60°24' E 005°19'0 0.0
2017-Jul-18 10:00N 60°24' E 005°19'0 0.0
2017-Jul-18 09:30N 60°24' E 005°19'0 0.0
2017-Jul-18 09:00N 60°24' E 005°19'0 0.0
2017-Jul-18 08:30N 60°24' E 005°19'0 0.0
2017-Jul-18 08:00N 60°24' E 005°19'0 0.0
2017-Jul-18 07:30N 60°24' E 005°19'0 0.0
2017-Jul-18 07:00N 60°24' E 005°19'0 0.0
2017-Jul-18 06:30N 60°24' E 005°19'0 0.0
2017-Jul-18 06:00N 60°24' E 005°19'0 0.0
2017-Jul-18 05:30N 60°24' E 005°19'0 0.0
2017-Jul-18 05:00N 60°24' E 005°19'0 0.1
2017-Jul-18 04:30N 60°24' E 005°18'1 3.0
2017-Jul-18 04:00N 60°24' E 005°15'4 7.7
2017-Jul-18 03:30N 60°21' E 005°10'4 8.3
2017-Jul-18 03:00N 60°17' E 005°11'4 8.4
2017-Jul-18 02:30N 60°13' E 005°11'5 9.2
2017-Jul-18 02:00N 60°09' E 005°16'5 9.4
2017-Jul-18 01:30N 60°05' E 005°19'5 9.6
2017-Jul-18 01:00N 59°60' E 005°21'5 9.3
2017-Jul-18 00:30N 59°57' E 005°27'5 9.2
2017-Jul-18 00:00N 59°53' E 005°32'4 8.9
2017-Jul-17 23:30N 59°49' E 005°35'4 8.7
2017-Jul-17 23:00N 59°52' E 005°41'5 9.0
2017-Jul-17 22:30N 59°56' E 005°46'4 8.9
2017-Jul-17 22:00N 59°59' E 005°51'5 9.1
2017-Jul-17 21:30N 60°02' E 005°57'5 9.1
2017-Jul-17 20:59N 60°06' E 006°04'4 7.8
2017-Jul-17 20:30N 60°10' E 006°04'4 7.7
2017-Jul-17 19:59N 60°13' E 006°06'4 8.9
2017-Jul-17 19:30N 60°17' E 006°12'5 9.6
2017-Jul-17 19:00N 60°21' E 006°17'510.3
2017-Jul-17 18:30N 60°24' E 006°25'510.4
2017-Jul-17 18:00N 60°27' E 006°34'5 9.6
2017-Jul-17 17:30N 60°26' E 006°44'5 9.9
2017-Jul-17 17:00N 60°29' E 006°52'510.3
2017-Jul-17 16:30N 60°29' E 007°02'1 0.1
2017-Jul-17 05:41N 60°28' E 007°03'0 0.1
2017-Jul-17 05:17N 60°28' E 007°03'1 1.8
2017-Jul-17 04:59N 60°29' E 007°03'5 9.6
2017-Jul-17 04:30N 60°29' E 006°53'612.6
2017-Jul-17 04:00N 60°25' E 006°42'92200.8
2017-Jul-17 04:00N 60°24' E 006°24'3 7.0 270 / 201014.0 5.4 13.011.314.0
2017-Jul-17 03:30N 60°26' E 006°30'714.3
2017-Jul-17 03:00N 60°21' E 006°18'715.1
2017-Jul-17 02:30N 60°15' E 006°11'713.4
2017-Jul-17 02:00N 60°09' E 006°05'815.6
2017-Jul-17 01:30N 60°02' E 005°57'817.1
2017-Jul-17 01:00N 59°56' E 005°46'917.3
2017-Jul-17 00:30N 59°48' E 005°36'817.2
2017-Jul-17 00:00N 59°42' E 005°26'917.0
2017-Jul-16 23:30N 59°35' E 005°15'714.5
2017-Jul-16 23:00N 59°28' E 005°10'714.0
2017-Jul-16 22:30N 59°22' E 005°06'816.4
2017-Jul-16 22:00N 59°14' E 005°06'714.4
2017-Jul-16 21:30N 59°07' E 005°12'510.3
2017-Jul-16 21:00N 59°05' E 005°21'611.3
2017-Jul-16 20:30N 58°60' E 005°20'713.8
2017-Jul-16 20:00N 58°53' E 005°20'816.4
2017-Jul-16 19:30N 58°44' E 005°20'816.0
2017-Jul-16 19:00N 58°36' E 005°20'815.7
2017-Jul-16 18:30N 58°29' E 005°20'714.4
2017-Jul-16 18:00N 58°22' E 005°24'714.3
2017-Jul-16 17:30N 58°15' E 005°29'24914.2
2017-Jul-16 00:00N 54°06' E 005°06'4018.8 220 / 201017.0 2.2 17.017.017.0
2017-Jul-15 21:51N 53°28' E 004°44'716.9
2017-Jul-15 21:24N 53°21' E 004°39'717.2
2017-Jul-15 21:00N 53°15' E 004°34'917.4
2017-Jul-15 20:30N 53°07' E 004°28'917.6
2017-Jul-15 20:01N 52°59' E 004°21'917.4
2017-Jul-15 19:31N 52°51' E 004°16'917.3
2017-Jul-15 19:00N 52°44' E 004°08'816.7
2017-Jul-15 18:30N 52°36' E 004°06'714.7
2017-Jul-15 18:00N 52°31' E 004°15'611.9
2017-Jul-15 17:30N 52°30' E 004°25'510.2
2017-Jul-15 17:00N 52°28' E 004°32'2 4.9
2017-Jul-15 16:31N 52°28' E 004°36'2 3.5
2017-Jul-15 16:01N 52°28' E 004°39'4 8.2
2017-Jul-15 15:31N 52°26' E 004°45'4 7.4
2017-Jul-15 15:01N 52°25' E 004°51'3 3.2
2017-Jul-15 14:00N 52°23' E 004°55'0 0.0
2017-Jul-15 13:30N 52°23' E 004°55'0 0.0
2017-Jul-15 13:00N 52°23' E 004°55'0 0.0
2017-Jul-15 12:30N 52°23' E 004°55'0 0.0
2017-Jul-15 12:00N 52°23' E 004°55'0 0.0
2017-Jul-15 11:30N 52°23' E 004°55'0 0.0
2017-Jul-15 11:00N 52°23' E 004°55'0 0.0
2017-Jul-15 10:30N 52°23' E 004°55'0 0.0
2017-Jul-15 10:00N 52°23' E 004°55'0 0.0
2017-Jul-15 09:30N 52°23' E 004°55'0 0.0
2017-Jul-15 09:00N 52°23' E 004°55'0 0.0
2017-Jul-15 08:30N 52°23' E 004°55'0 0.0
2017-Jul-15 08:00N 52°23' E 004°55'0 0.0
2017-Jul-15 07:30N 52°23' E 004°55'0 0.0
2017-Jul-15 07:00N 52°23' E 004°55'0 0.0
2017-Jul-15 06:30N 52°23' E 004°55'0 0.0
2017-Jul-15 06:00N 52°23' E 004°55'0 0.0
2017-Jul-15 05:30N 52°23' E 004°55'0 0.0
2017-Jul-15 05:00N 52°23' E 004°55'0 0.0
2017-Jul-15 04:30N 52°23' E 004°55'1 1.4
2017-Jul-15 04:01N 52°23' E 004°54'3 6.3
2017-Jul-15 03:31N 52°25' E 004°50'4 7.4
2017-Jul-15 03:00N 52°26' E 004°44'4 7.9
2017-Jul-15 02:30N 52°28' E 004°38'1 2.2
2017-Jul-15 02:00N 52°28' E 004°37'2 3.3
2017-Jul-15 01:30N 52°28' E 004°34'611.0
2017-Jul-15 01:00N 52°29' E 004°25'612.6
2017-Jul-15 00:31N 52°29' E 004°15'918.5
2017-Jul-15 00:00N 52°36' E 004°04'918.7
2017-Jul-14 23:30N 52°44' E 003°56'1020.8
2017-Jul-14 23:00N 52°54' E 003°59'918.8
2017-Jul-14 22:30N 53°01' E 004°10'1019.3
2017-Jul-14 22:00N 53°07' E 004°22'14118.4
2017-Jul-14 14:21N 54°01' E 008°01'618.0
2017-Jul-14 14:00N 54°00' E 008°12'815.8
2017-Jul-14 13:30N 53°59' E 008°25'917.1
2017-Jul-14 13:00N 53°57' E 008°39'713.0
2017-Jul-14 12:30N 53°51' E 008°45'713.3
2017-Jul-14 12:00N 53°51' E 008°56'714.7
2017-Jul-14 11:30N 53°53' E 009°08'0 0.8
2017-Jul-14 11:00N 53°54' E 009°09'2 3.7
2017-Jul-14 10:30N 53°55' E 009°11'3 6.9
2017-Jul-14 10:00N 53°58' E 009°15'3 6.8
2017-Jul-14 09:30N 54°00' E 009°18'3 6.8
2017-Jul-14 09:00N 54°04' E 009°19'5 6.4
2017-Jul-14 08:10N 54°09' E 009°22'50 5.1
2017-Jul-13 22:19N 54°35' E 010°36'619.1
2017-Jul-13 22:00N 54°35' E 010°46'1019.2
2017-Jul-13 21:31N 54°36' E 011°02'918.6
2017-Jul-13 21:00N 54°34' E 011°18'918.6
2017-Jul-13 20:31N 54°31' E 011°33'1318.7
2017-Jul-13 19:47N 54°23' E 011°52'818.0
2017-Jul-13 19:21N 54°18' E 012°02'513.4
2017-Jul-13 18:58N 54°13' E 012°05'3 5.1
2017-Jul-13 18:28N 54°11' E 012°06'0 0.0
2017-Jul-13 14:40N 54°11' E 012°06'0 0.0
2017-Jul-13 14:28N 54°11' E 012°06'0 0.0
2017-Jul-13 03:59N 54°10' E 012°06'3 5.8
2017-Jul-13 03:30N 54°13' E 012°03'2 3.5
2017-Jul-13 03:00N 54°15' E 012°02'612.4
2017-Jul-13 02:31N 54°20' E 011°57'612.2
2017-Jul-13 02:00N 54°26' E 011°58'613.0
2017-Jul-13 01:31N 54°27' E 012°09'714.0
2017-Jul-13 01:01N 54°34' E 012°14'1414.3
2017-Jul-13 00:02N 54°44' E 012°30'514.5
2017-Jul-12 23:41N 54°46' E 012°38'314.3
2017-Jul-12 23:30N 54°48' E 012°42'1314.3
2017-Jul-12 22:37N 54°52' E 013°02'214.7
2017-Jul-12 22:30N 54°53' E 013°05'714.4
2017-Jul-12 22:00N 54°54' E 013°17'1814.7
2017-Jul-12 20:47N 54°60' E 013°47'415.1
2017-Jul-12 20:30N 55°01' E 013°54'815.0
2017-Jul-12 20:00N 55°04' E 014°06'815.3
2017-Jul-12 19:31N 55°10' E 014°14'815.3
2017-Jul-12 19:01N 55°16' E 014°22'815.4
2017-Jul-12 18:31N 55°23' E 014°30'715.0
2017-Jul-12 18:01N 55°28' E 014°40'815.0
2017-Jul-12 17:30N 55°32' E 014°51'815.1
2017-Jul-12 17:00N 55°36' E 015°03'815.4
2017-Jul-12 16:31N 55°40' E 015°14'815.2
2017-Jul-12 16:00N 55°43' E 015°26'815.3
2017-Jul-12 15:30N 55°46' E 015°39'815.2
2017-Jul-12 15:01N 55°50' E 015°50'1515.3
2017-Jul-12 14:01N 55°58' E 016°14'815.2
2017-Jul-12 13:31N 56°02' E 016°25'815.1
2017-Jul-12 13:01N 56°07' E 016°36'714.2
2017-Jul-12 12:30N 56°12' E 016°45'815.0
2017-Jul-12 12:00N 56°19' E 016°51'815.1
2017-Jul-12 11:30N 56°25' E 016°56'  

Dump ship's entire track history